sensor_id;sensor_type;location;lat;lon;timestamp;P1;durP1;ratioP1;P2;durP2;ratioP2
68995;SDS011;56056;48.990;12.146;2023-04-25T00:01:36;883.25;;;820.90;;
68995;SDS011;56056;48.990;12.146;2023-04-25T00:04:04;891.55;;;828.45;;
68995;SDS011;56056;48.990;12.146;2023-04-25T00:06:33;928.20;;;861.75;;
68995;SDS011;56056;48.990;12.146;2023-04-25T00:09:01;873.00;;;811.10;;
68995;SDS011;56056;48.990;12.146;2023-04-25T00:11:27;868.63;;;807.95;;
68995;SDS011;56056;48.990;12.146;2023-04-25T00:13:52;824.85;;;766.42;;
68995;SDS011;56056;48.990;12.146;2023-04-25T00:16:19;842.78;;;785.45;;
68995;SDS011;56056;48.990;12.146;2023-04-25T00:18:44;859.20;;;797.38;;
68995;SDS011;56056;48.990;12.146;2023-04-25T00:21:17;892.40;;;828.78;;
68995;SDS011;56056;48.990;12.146;2023-04-25T00:23:43;865.22;;;803.95;;
68995;SDS011;56056;48.990;12.146;2023-04-25T00:26:10;866.67;;;805.30;;
68995;SDS011;56056;48.990;12.146;2023-04-25T00:28:36;854.33;;;793.42;;
68995;SDS011;56056;48.990;12.146;2023-04-25T00:31:02;888.78;;;827.78;;
68995;SDS011;56056;48.990;12.146;2023-04-25T00:33:28;890.67;;;828.00;;
68995;SDS011;56056;48.990;12.146;2023-04-25T00:35:54;836.10;;;778.03;;
68995;SDS011;56056;48.990;12.146;2023-04-25T00:38:21;858.00;;;798.15;;
68995;SDS011;56056;48.990;12.146;2023-04-25T00:40:47;773.05;;;721.58;;
68995;SDS011;56056;48.990;12.146;2023-04-25T00:43:13;893.40;;;830.17;;
68995;SDS011;56056;48.990;12.146;2023-04-25T00:45:38;888.85;;;826.03;;
68995;SDS011;56056;48.990;12.146;2023-04-25T00:48:04;811.47;;;753.60;;
68995;SDS011;56056;48.990;12.146;2023-04-25T00:50:31;844.90;;;786.22;;
68995;SDS011;56056;48.990;12.146;2023-04-25T00:52:57;822.00;;;764.88;;
68995;SDS011;56056;48.990;12.146;2023-04-25T00:55:24;848.58;;;789.17;;
68995;SDS011;56056;48.990;12.146;2023-04-25T00:57:50;862.92;;;802.65;;
68995;SDS011;56056;48.990;12.146;2023-04-25T01:00:16;849.28;;;791.90;;
68995;SDS011;56056;48.990;12.146;2023-04-25T01:02:43;915.88;;;850.28;;
68995;SDS011;56056;48.990;12.146;2023-04-25T01:05:09;850.15;;;790.85;;
68995;SDS011;56056;48.990;12.146;2023-04-25T01:07:35;875.58;;;814.47;;
68995;SDS011;56056;48.990;12.146;2023-04-25T01:10:01;830.95;;;772.10;;
68995;SDS011;56056;48.990;12.146;2023-04-25T01:12:28;861.72;;;801.53;;
68995;SDS011;56056;48.990;12.146;2023-04-25T01:14:54;856.38;;;796.72;;
68995;SDS011;56056;48.990;12.146;2023-04-25T01:17:20;828.95;;;770.95;;
68995;SDS011;56056;48.990;12.146;2023-04-25T01:19:46;863.97;;;803.65;;
68995;SDS011;56056;48.990;12.146;2023-04-25T01:22:15;869.13;;;809.20;;
68995;SDS011;56056;48.990;12.146;2023-04-25T01:24:41;838.70;;;780.00;;
68995;SDS011;56056;48.990;12.146;2023-04-25T01:27:07;807.05;;;751.45;;
68995;SDS011;56056;48.990;12.146;2023-04-25T01:29:34;848.83;;;788.95;;
68995;SDS011;56056;48.990;12.146;2023-04-25T01:32:00;895.47;;;834.63;;
68995;SDS011;56056;48.990;12.146;2023-04-25T01:34:26;857.67;;;799.88;;
68995;SDS011;56056;48.990;12.146;2023-04-25T01:36:52;857.30;;;799.50;;
68995;SDS011;56056;48.990;12.146;2023-04-25T01:39:20;899.60;;;837.35;;
68995;SDS011;56056;48.990;12.146;2023-04-25T01:41:46;824.35;;;769.50;;
68995;SDS011;56056;48.990;12.146;2023-04-25T01:44:12;806.97;;;753.45;;
68995;SDS011;56056;48.990;12.146;2023-04-25T01:46:38;849.65;;;792.90;;
68995;SDS011;56056;48.990;12.146;2023-04-25T01:49:04;805.67;;;751.60;;
68995;SDS011;56056;48.990;12.146;2023-04-25T01:51:29;826.03;;;769.28;;
68995;SDS011;56056;48.990;12.146;2023-04-25T01:53:56;932.85;;;862.45;;
68995;SDS011;56056;48.990;12.146;2023-04-25T01:56:23;809.83;;;753.22;;
68995;SDS011;56056;48.990;12.146;2023-04-25T01:58:49;834.80;;;776.22;;
68995;SDS011;56056;48.990;12.146;2023-04-25T02:01:16;826.83;;;770.08;;
68995;SDS011;56056;48.990;12.146;2023-04-25T02:03:42;818.00;;;761.65;;
68995;SDS011;56056;48.990;12.146;2023-04-25T02:06:08;795.08;;;742.15;;
68995;SDS011;56056;48.990;12.146;2023-04-25T02:08:33;746.83;;;690.72;;
68995;SDS011;56056;48.990;12.146;2023-04-25T02:10:59;850.17;;;791.10;;
68995;SDS011;56056;48.990;12.146;2023-04-25T02:13:26;834.58;;;774.05;;
68995;SDS011;56056;48.990;12.146;2023-04-25T02:15:52;810.25;;;754.38;;
68995;SDS011;56056;48.990;12.146;2023-04-25T02:18:18;812.78;;;757.08;;
68995;SDS011;56056;48.990;12.146;2023-04-25T02:20:44;869.50;;;808.60;;
68995;SDS011;56056;48.990;12.146;2023-04-25T02:23:10;845.17;;;786.25;;
68995;SDS011;56056;48.990;12.146;2023-04-25T02:25:36;829.50;;;771.72;;
68995;SDS011;56056;48.990;12.146;2023-04-25T02:28:02;851.38;;;790.85;;
68995;SDS011;56056;48.990;12.146;2023-04-25T02:30:29;882.30;;;818.20;;
68995;SDS011;56056;48.990;12.146;2023-04-25T02:32:54;886.65;;;822.70;;
68995;SDS011;56056;48.990;12.146;2023-04-25T02:35:21;845.72;;;787.65;;
68995;SDS011;56056;48.990;12.146;2023-04-25T02:37:47;759.33;;;708.65;;
68995;SDS011;56056;48.990;12.146;2023-04-25T02:40:12;812.42;;;757.13;;
68995;SDS011;56056;48.990;12.146;2023-04-25T02:42:38;870.67;;;811.90;;
68995;SDS011;56056;48.990;12.146;2023-04-25T02:45:04;893.92;;;829.60;;
68995;SDS011;56056;48.990;12.146;2023-04-25T02:47:32;865.20;;;802.35;;
68995;SDS011;56056;48.990;12.146;2023-04-25T02:49:57;834.72;;;776.67;;
68995;SDS011;56056;48.990;12.146;2023-04-25T02:52:23;842.42;;;784.83;;
68995;SDS011;56056;48.990;12.146;2023-04-25T02:54:49;833.67;;;778.95;;
68995;SDS011;56056;48.990;12.146;2023-04-25T02:57:15;843.10;;;785.28;;
68995;SDS011;56056;48.990;12.146;2023-04-25T02:59:41;886.10;;;822.67;;
68995;SDS011;56056;48.990;12.146;2023-04-25T03:02:06;844.30;;;787.25;;
68995;SDS011;56056;48.990;12.146;2023-04-25T03:04:33;846.55;;;788.25;;
68995;SDS011;56056;48.990;12.146;2023-04-25T03:06:59;843.42;;;786.13;;
68995;SDS011;56056;48.990;12.146;2023-04-25T03:09:25;832.08;;;774.80;;
68995;SDS011;56056;48.990;12.146;2023-04-25T03:11:50;856.08;;;795.45;;
68995;SDS011;56056;48.990;12.146;2023-04-25T03:14:16;833.30;;;777.17;;
68995;SDS011;56056;48.990;12.146;2023-04-25T03:16:42;821.47;;;766.17;;
68995;SDS011;56056;48.990;12.146;2023-04-25T03:19:07;764.30;;;714.47;;
68995;SDS011;56056;48.990;12.146;2023-04-25T03:21:34;795.35;;;742.42;;
68995;SDS011;56056;48.990;12.146;2023-04-25T03:24:01;830.75;;;775.40;;
68995;SDS011;56056;48.990;12.146;2023-04-25T03:26:28;811.08;;;753.78;;
68995;SDS011;56056;48.990;12.146;2023-04-25T03:28:53;870.13;;;811.40;;
68995;SDS011;56056;48.990;12.146;2023-04-25T03:31:19;763.42;;;715.40;;
68995;SDS011;56056;48.990;12.146;2023-04-25T03:33:44;904.42;;;840.92;;
68995;SDS011;56056;48.990;12.146;2023-04-25T03:36:10;859.72;;;799.97;;
68995;SDS011;56056;48.990;12.146;2023-04-25T03:38:37;892.47;;;827.83;;
68995;SDS011;56056;48.990;12.146;2023-04-25T03:41:03;896.03;;;831.63;;
68995;SDS011;56056;48.990;12.146;2023-04-25T03:43:28;889.47;;;826.58;;
68995;SDS011;56056;48.990;12.146;2023-04-25T03:45:54;933.65;;;866.88;;
68995;SDS011;56056;48.990;12.146;2023-04-25T03:48:20;848.55;;;789.88;;
68995;SDS011;56056;48.990;12.146;2023-04-25T03:50:50;897.58;;;834.55;;
68995;SDS011;56056;48.990;12.146;2023-04-25T03:53:16;830.03;;;774.22;;
68995;SDS011;56056;48.990;12.146;2023-04-25T03:55:43;895.35;;;830.42;;
68995;SDS011;56056;48.990;12.146;2023-04-25T03:58:09;917.20;;;853.03;;
68995;SDS011;56056;48.990;12.146;2023-04-25T04:00:35;800.75;;;748.25;;
68995;SDS011;56056;48.990;12.146;2023-04-25T04:03:00;708.15;;;665.42;;
68995;SDS011;56056;48.990;12.146;2023-04-25T04:05:27;904.45;;;842.38;;
68995;SDS011;56056;48.990;12.146;2023-04-25T04:07:53;928.30;;;858.70;;
68995;SDS011;56056;48.990;12.146;2023-04-25T04:10:19;899.17;;;837.97;;
68995;SDS011;56056;48.990;12.146;2023-04-25T04:12:46;864.47;;;804.00;;
68995;SDS011;56056;48.990;12.146;2023-04-25T04:15:11;950.90;;;879.28;;
68995;SDS011;56056;48.990;12.146;2023-04-25T04:17:37;918.83;;;855.90;;
68995;SDS011;56056;48.990;12.146;2023-04-25T04:20:03;862.88;;;802.38;;
68995;SDS011;56056;48.990;12.146;2023-04-25T04:22:30;927.85;;;862.45;;
68995;SDS011;56056;48.990;12.146;2023-04-25T04:24:56;857.63;;;797.92;;
68995;SDS011;56056;48.990;12.146;2023-04-25T04:27:22;903.50;;;839.15;;
68995;SDS011;56056;48.990;12.146;2023-04-25T04:29:49;857.53;;;797.55;;
68995;SDS011;56056;48.990;12.146;2023-04-25T04:32:16;847.35;;;790.95;;
68995;SDS011;56056;48.990;12.146;2023-04-25T04:34:42;852.10;;;793.17;;
68995;SDS011;56056;48.990;12.146;2023-04-25T04:37:08;831.00;;;774.92;;
68995;SDS011;56056;48.990;12.146;2023-04-25T04:39:34;813.72;;;759.47;;
68995;SDS011;56056;48.990;12.146;2023-04-25T04:42:00;805.40;;;752.05;;
68995;SDS011;56056;48.990;12.146;2023-04-25T04:44:30;849.75;;;792.42;;
68995;SDS011;56056;48.990;12.146;2023-04-25T04:46:58;838.72;;;781.45;;
68995;SDS011;56056;48.990;12.146;2023-04-25T04:49:24;835.90;;;778.80;;
68995;SDS011;56056;48.990;12.146;2023-04-25T04:51:50;781.35;;;729.72;;
68995;SDS011;56056;48.990;12.146;2023-04-25T04:54:16;793.05;;;739.88;;
68995;SDS011;56056;48.990;12.146;2023-04-25T04:56:41;825.33;;;768.67;;
68995;SDS011;56056;48.990;12.146;2023-04-25T04:59:07;893.63;;;831.58;;
68995;SDS011;56056;48.990;12.146;2023-04-25T05:01:33;948.22;;;876.97;;
68995;SDS011;56056;48.990;12.146;2023-04-25T05:04:02;855.03;;;796.83;;
68995;SDS011;56056;48.990;12.146;2023-04-25T05:06:28;879.30;;;819.42;;
68995;SDS011;56056;48.990;12.146;2023-04-25T05:08:55;909.00;;;845.50;;
68995;SDS011;56056;48.990;12.146;2023-04-25T05:11:21;790.17;;;737.83;;
68995;SDS011;56056;48.990;12.146;2023-04-25T05:13:46;889.63;;;827.15;;
68995;SDS011;56056;48.990;12.146;2023-04-25T05:16:12;717.63;;;669.95;;
68995;SDS011;56056;48.990;12.146;2023-04-25T05:18:38;891.33;;;830.45;;
68995;SDS011;56056;48.990;12.146;2023-04-25T05:21:05;849.55;;;791.58;;
68995;SDS011;56056;48.990;12.146;2023-04-25T05:23:31;935.25;;;868.55;;
68995;SDS011;56056;48.990;12.146;2023-04-25T05:25:58;947.55;;;878.05;;
68995;SDS011;56056;48.990;12.146;2023-04-25T05:28:23;887.60;;;826.42;;
68995;SDS011;56056;48.990;12.146;2023-04-25T05:30:49;904.08;;;840.10;;
68995;SDS011;56056;48.990;12.146;2023-04-25T05:33:15;897.85;;;834.47;;
68995;SDS011;56056;48.990;12.146;2023-04-25T05:35:41;866.25;;;805.95;;
68995;SDS011;56056;48.990;12.146;2023-04-25T05:38:08;912.25;;;849.75;;
68995;SDS011;56056;48.990;12.146;2023-04-25T05:40:34;900.75;;;836.35;;
68995;SDS011;56056;48.990;12.146;2023-04-25T05:42:59;865.25;;;806.75;;
68995;SDS011;56056;48.990;12.146;2023-04-25T05:45:25;808.38;;;754.00;;
68995;SDS011;56056;48.990;12.146;2023-04-25T05:47:51;759.53;;;710.00;;
68995;SDS011;56056;48.990;12.146;2023-04-25T05:50:16;764.75;;;713.65;;
68995;SDS011;56056;48.990;12.146;2023-04-25T05:52:42;713.03;;;666.50;;
68995;SDS011;56056;48.990;12.146;2023-04-25T05:55:09;858.72;;;799.88;;
68995;SDS011;56056;48.990;12.146;2023-04-25T05:57:35;899.05;;;831.45;;
68995;SDS011;56056;48.990;12.146;2023-04-25T06:00:01;884.72;;;818.67;;
68995;SDS011;56056;48.990;12.146;2023-04-25T06:02:26;933.65;;;856.28;;
68995;SDS011;56056;48.990;12.146;2023-04-25T06:04:52;984.22;;;909.10;;
68995;SDS011;56056;48.990;12.146;2023-04-25T06:07:18;1091.20;;;981.45;;
68995;SDS011;56056;48.990;12.146;2023-04-25T06:09:44;1129.70;;;995.45;;
68995;SDS011;56056;48.990;12.146;2023-04-25T06:12:11;1450.47;;;999.90;;
68995;SDS011;56056;48.990;12.146;2023-04-25T06:14:37;1227.50;;;999.90;;
68995;SDS011;56056;48.990;12.146;2023-04-25T06:17:03;997.70;;;903.53;;
68995;SDS011;56056;48.990;12.146;2023-04-25T06:19:33;937.85;;;858.00;;
68995;SDS011;56056;48.990;12.146;2023-04-25T06:21:59;828.42;;;769.58;;
68995;SDS011;56056;48.990;12.146;2023-04-25T06:24:24;1243.15;;;999.90;;
68995;SDS011;56056;48.990;12.146;2023-04-25T06:26:50;1290.28;;;999.90;;
68995;SDS011;56056;48.990;12.146;2023-04-25T06:29:17;1514.75;;;999.90;;
68995;SDS011;56056;48.990;12.146;2023-04-25T06:31:42;1571.18;;;999.90;;
68995;SDS011;56056;48.990;12.146;2023-04-25T06:34:08;1359.60;;;999.90;;
68995;SDS011;56056;48.990;12.146;2023-04-25T06:36:34;1123.15;;;970.78;;
68995;SDS011;56056;48.990;12.146;2023-04-25T06:38:59;908.15;;;828.42;;
68995;SDS011;56056;48.990;12.146;2023-04-25T06:41:25;905.40;;;829.50;;
68995;SDS011;56056;48.990;12.146;2023-04-25T06:43:51;1154.32;;;999.90;;
68995;SDS011;56056;48.990;12.146;2023-04-25T06:46:18;1115.25;;;992.72;;
68995;SDS011;56056;48.990;12.146;2023-04-25T06:48:43;1179.15;;;999.90;;
68995;SDS011;56056;48.990;12.146;2023-04-25T06:51:09;1196.00;;;999.90;;
68995;SDS011;56056;48.990;12.146;2023-04-25T06:53:35;1340.97;;;999.90;;
68995;SDS011;56056;48.990;12.146;2023-04-25T06:56:01;1449.20;;;999.90;;
68995;SDS011;56056;48.990;12.146;2023-04-25T06:58:28;1375.78;;;999.90;;
68995;SDS011;56056;48.990;12.146;2023-04-25T07:00:53;1284.82;;;999.90;;
68995;SDS011;56056;48.990;12.146;2023-04-25T07:03:21;1312.18;;;999.90;;
68995;SDS011;56056;48.990;12.146;2023-04-25T07:05:46;1348.65;;;999.90;;
68995;SDS011;56056;48.990;12.146;2023-04-25T07:08:12;1180.65;;;999.90;;
68995;SDS011;56056;48.990;12.146;2023-04-25T07:10:38;1176.72;;;999.90;;
68995;SDS011;56056;48.990;12.146;2023-04-25T07:13:05;1172.80;;;999.90;;
68995;SDS011;56056;48.990;12.146;2023-04-25T07:15:30;986.25;;;891.95;;
68995;SDS011;56056;48.990;12.146;2023-04-25T07:17:56;1160.22;;;983.15;;
68995;SDS011;56056;48.990;12.146;2023-04-25T07:20:23;1331.32;;;999.90;;
68995;SDS011;56056;48.990;12.146;2023-04-25T07:22:49;1088.20;;;972.08;;
68995;SDS011;56056;48.990;12.146;2023-04-25T07:25:15;962.25;;;879.08;;
68995;SDS011;56056;48.990;12.146;2023-04-25T07:27:40;1214.38;;;998.75;;
68995;SDS011;56056;48.990;12.146;2023-04-25T07:30:07;1344.15;;;999.90;;
68995;SDS011;56056;48.990;12.146;2023-04-25T07:32:33;1330.93;;;999.90;;
68995;SDS011;56056;48.990;12.146;2023-04-25T07:34:58;1169.35;;;999.90;;
68995;SDS011;56056;48.990;12.146;2023-04-25T07:37:25;1222.40;;;999.90;;
68995;SDS011;56056;48.990;12.146;2023-04-25T07:39:51;1063.65;;;952.90;;
68995;SDS011;56056;48.990;12.146;2023-04-25T07:42:17;951.80;;;866.63;;
68995;SDS011;56056;48.990;12.146;2023-04-25T07:44:43;1115.07;;;984.97;;
68995;SDS011;56056;48.990;12.146;2023-04-25T07:47:08;1147.93;;;993.30;;
68995;SDS011;56056;48.990;12.146;2023-04-25T07:49:34;818.05;;;742.50;;
68995;SDS011;56056;48.990;12.146;2023-04-25T07:52:00;1049.07;;;949.75;;
68995;SDS011;56056;48.990;12.146;2023-04-25T07:54:28;1119.25;;;998.83;;
68995;SDS011;56056;48.990;12.146;2023-04-25T07:56:53;1020.17;;;924.78;;
68995;SDS011;56056;48.990;12.146;2023-04-25T07:59:19;1067.03;;;961.45;;
68995;SDS011;56056;48.990;12.146;2023-04-25T08:01:45;1084.35;;;980.45;;
68995;SDS011;56056;48.990;12.146;2023-04-25T08:04:11;1008.85;;;913.88;;
68995;SDS011;56056;48.990;12.146;2023-04-25T08:06:36;1082.93;;;971.45;;
68995;SDS011;56056;48.990;12.146;2023-04-25T08:09:02;1128.70;;;998.10;;
68995;SDS011;56056;48.990;12.146;2023-04-25T08:11:30;1168.13;;;999.90;;
68995;SDS011;56056;48.990;12.146;2023-04-25T08:13:56;1310.90;;;999.90;;
68995;SDS011;56056;48.990;12.146;2023-04-25T08:16:21;1358.63;;;999.90;;
68995;SDS011;56056;48.990;12.146;2023-04-25T08:18:47;1266.47;;;999.90;;
68995;SDS011;56056;48.990;12.146;2023-04-25T08:21:12;1348.25;;;999.90;;
68995;SDS011;56056;48.990;12.146;2023-04-25T08:23:38;1370.03;;;999.90;;
68995;SDS011;56056;48.990;12.146;2023-04-25T08:26:04;1119.75;;;997.50;;
68995;SDS011;56056;48.990;12.146;2023-04-25T08:28:31;1077.20;;;972.05;;
68995;SDS011;56056;48.990;12.146;2023-04-25T08:30:57;1094.60;;;983.47;;
68995;SDS011;56056;48.990;12.146;2023-04-25T08:33:23;813.80;;;756.58;;
68995;SDS011;56056;48.990;12.146;2023-04-25T08:35:48;1134.10;;;999.90;;
68995;SDS011;56056;48.990;12.146;2023-04-25T08:38:14;1412.38;;;999.90;;
68995;SDS011;56056;48.990;12.146;2023-04-25T08:40:40;1404.00;;;999.90;;
68995;SDS011;56056;48.990;12.146;2023-04-25T08:43:07;1191.07;;;999.90;;
68995;SDS011;56056;48.990;12.146;2023-04-25T08:45:38;1074.80;;;968.53;;
68995;SDS011;56056;48.990;12.146;2023-04-25T08:48:06;1059.65;;;956.22;;
68995;SDS011;56056;48.990;12.146;2023-04-25T08:50:32;1054.55;;;957.05;;
68995;SDS011;56056;48.990;12.146;2023-04-25T08:52:59;1159.45;;;999.90;;
68995;SDS011;56056;48.990;12.146;2023-04-25T08:55:29;1083.30;;;974.38;;
68995;SDS011;56056;48.990;12.146;2023-04-25T08:57:55;1113.85;;;997.42;;
68995;SDS011;56056;48.990;12.146;2023-04-25T09:00:21;1000.00;;;901.67;;
68995;SDS011;56056;48.990;12.146;2023-04-25T09:02:49;995.67;;;901.15;;
68995;SDS011;56056;48.990;12.146;2023-04-25T09:05:14;961.42;;;876.75;;
68995;SDS011;56056;48.990;12.146;2023-04-25T09:07:40;980.92;;;897.17;;
68995;SDS011;56056;48.990;12.146;2023-04-25T09:10:06;902.75;;;833.80;;
68995;SDS011;56056;48.990;12.146;2023-04-25T09:12:32;998.50;;;913.70;;
68995;SDS011;56056;48.990;12.146;2023-04-25T09:15:02;1249.95;;;999.90;;
68995;SDS011;56056;48.990;12.146;2023-04-25T09:17:31;1154.85;;;999.00;;
68995;SDS011;56056;48.990;12.146;2023-04-25T09:20:06;1211.50;;;999.90;;
68995;SDS011;56056;48.990;12.146;2023-04-25T09:22:33;1031.18;;;927.30;;
68995;SDS011;56056;48.990;12.146;2023-04-25T09:24:59;1304.35;;;999.90;;
68995;SDS011;56056;48.990;12.146;2023-04-25T09:27:27;1432.00;;;999.90;;
68995;SDS011;56056;48.990;12.146;2023-04-25T09:29:56;1082.50;;;966.45;;
68995;SDS011;56056;48.990;12.146;2023-04-25T09:32:23;1044.45;;;937.40;;
68995;SDS011;56056;48.990;12.146;2023-04-25T09:34:50;1143.28;;;999.90;;
68995;SDS011;56056;48.990;12.146;2023-04-25T09:37:18;1034.82;;;933.33;;
68995;SDS011;56056;48.990;12.146;2023-04-25T09:39:45;1063.47;;;967.58;;
68995;SDS011;56056;48.990;12.146;2023-04-25T09:42:14;1021.83;;;925.85;;
68995;SDS011;56056;48.990;12.146;2023-04-25T09:44:44;989.60;;;896.25;;
68995;SDS011;56056;48.990;12.146;2023-04-25T09:47:10;1221.03;;;999.90;;
68995;SDS011;56056;48.990;12.146;2023-04-25T09:49:38;1198.53;;;999.90;;
68995;SDS011;56056;48.990;12.146;2023-04-25T09:52:05;1378.65;;;999.90;;
68995;SDS011;56056;48.990;12.146;2023-04-25T09:54:32;1321.78;;;999.90;;
68995;SDS011;56056;48.990;12.146;2023-04-25T09:56:58;999.28;;;907.63;;
68995;SDS011;56056;48.990;12.146;2023-04-25T09:59:36;1153.25;;;999.90;;
68995;SDS011;56056;48.990;12.146;2023-04-25T10:02:04;1318.38;;;999.90;;
68995;SDS011;56056;48.990;12.146;2023-04-25T10:04:30;1493.13;;;999.90;;
68995;SDS011;56056;48.990;12.146;2023-04-25T10:07:00;1499.20;;;999.90;;
68995;SDS011;56056;48.990;12.146;2023-04-25T10:09:26;1188.72;;;999.90;;
68995;SDS011;56056;48.990;12.146;2023-04-25T10:11:58;1032.78;;;917.75;;
68995;SDS011;56056;48.990;12.146;2023-04-25T10:14:25;958.40;;;868.20;;
68995;SDS011;56056;48.990;12.146;2023-04-25T10:16:51;1201.20;;;988.75;;
68995;SDS011;56056;48.990;12.146;2023-04-25T10:19:20;1268.30;;;998.17;;
68995;SDS011;56056;48.990;12.146;2023-04-25T10:21:48;1226.38;;;999.90;;
68995;SDS011;56056;48.990;12.146;2023-04-25T10:24:16;1134.50;;;998.00;;
68995;SDS011;56056;48.990;12.146;2023-04-25T10:26:42;1997.28;;;999.90;;
68995;SDS011;56056;48.990;12.146;2023-04-25T10:29:09;1241.30;;;999.90;;
68995;SDS011;56056;48.990;12.146;2023-04-25T10:31:38;1183.25;;;999.90;;
68995;SDS011;56056;48.990;12.146;2023-04-25T10:34:10;1169.05;;;999.90;;
68995;SDS011;56056;48.990;12.146;2023-04-25T10:36:36;1052.03;;;951.67;;
68995;SDS011;56056;48.990;12.146;2023-04-25T10:39:03;1120.40;;;988.35;;
68995;SDS011;56056;48.990;12.146;2023-04-25T10:41:32;1410.93;;;999.90;;
68995;SDS011;56056;48.990;12.146;2023-04-25T10:44:12;1211.05;;;999.90;;
68995;SDS011;56056;48.990;12.146;2023-04-25T10:46:38;1197.40;;;999.90;;
68995;SDS011;56056;48.990;12.146;2023-04-25T10:49:04;1168.53;;;999.90;;
68995;SDS011;56056;48.990;12.146;2023-04-25T10:51:30;1390.00;;;999.90;;
68995;SDS011;56056;48.990;12.146;2023-04-25T10:53:58;863.60;;;793.20;;
68995;SDS011;56056;48.990;12.146;2023-04-25T10:56:25;1123.13;;;968.83;;
68995;SDS011;56056;48.990;12.146;2023-04-25T10:58:52;1154.47;;;997.85;;
68995;SDS011;56056;48.990;12.146;2023-04-25T11:01:29;1379.13;;;999.90;;
68995;SDS011;56056;48.990;12.146;2023-04-25T11:04:01;1154.07;;;994.05;;
68995;SDS011;56056;48.990;12.146;2023-04-25T11:06:28;1176.32;;;999.90;;
68995;SDS011;56056;48.990;12.146;2023-04-25T11:08:57;1294.50;;;999.90;;
68995;SDS011;56056;48.990;12.146;2023-04-25T11:11:25;1329.07;;;999.67;;
68995;SDS011;56056;48.990;12.146;2023-04-25T11:13:52;1298.85;;;999.90;;
68995;SDS011;56056;48.990;12.146;2023-04-25T11:16:17;1315.43;;;999.90;;
68995;SDS011;56056;48.990;12.146;2023-04-25T11:18:44;1352.45;;;999.90;;
68995;SDS011;56056;48.990;12.146;2023-04-25T11:21:10;1259.00;;;999.90;;
68995;SDS011;56056;48.990;12.146;2023-04-25T11:23:36;1164.32;;;999.90;;
68995;SDS011;56056;48.990;12.146;2023-04-25T11:26:02;1087.13;;;976.53;;
68995;SDS011;56056;48.990;12.146;2023-04-25T11:28:28;1045.70;;;947.70;;
68995;SDS011;56056;48.990;12.146;2023-04-25T11:30:53;1070.00;;;967.17;;
68995;SDS011;56056;48.990;12.146;2023-04-25T11:33:22;891.63;;;823.22;;
68995;SDS011;56056;48.990;12.146;2023-04-25T11:35:50;853.47;;;794.78;;
68995;SDS011;56056;48.990;12.146;2023-04-25T11:38:17;976.28;;;889.15;;
68995;SDS011;56056;48.990;12.146;2023-04-25T11:40:43;936.72;;;864.03;;
68995;SDS011;56056;48.990;12.146;2023-04-25T11:43:08;896.65;;;829.47;;
68995;SDS011;56056;48.990;12.146;2023-04-25T11:45:36;1074.57;;;972.72;;
68995;SDS011;56056;48.990;12.146;2023-04-25T11:48:02;1168.15;;;999.90;;
68995;SDS011;56056;48.990;12.146;2023-04-25T11:50:28;1215.07;;;999.90;;
68995;SDS011;56056;48.990;12.146;2023-04-25T11:52:56;1121.07;;;999.90;;
68995;SDS011;56056;48.990;12.146;2023-04-25T11:55:22;1210.28;;;999.90;;
68995;SDS011;56056;48.990;12.146;2023-04-25T11:57:48;1200.80;;;999.90;;
68995;SDS011;56056;48.990;12.146;2023-04-25T12:00:16;1178.28;;;999.90;;
68995;SDS011;56056;48.990;12.146;2023-04-25T12:02:43;1183.43;;;999.90;;
68995;SDS011;56056;48.990;12.146;2023-04-25T12:05:10;1445.75;;;999.90;;
68995;SDS011;56056;48.990;12.146;2023-04-25T12:07:36;1364.32;;;999.90;;
68995;SDS011;56056;48.990;12.146;2023-04-25T12:10:08;1546.88;;;999.90;;
68995;SDS011;56056;48.990;12.146;2023-04-25T12:12:35;1385.22;;;999.90;;
68995;SDS011;56056;48.990;12.146;2023-04-25T12:15:08;1299.97;;;999.90;;
68995;SDS011;56056;48.990;12.146;2023-04-25T12:17:35;1467.15;;;999.90;;
68995;SDS011;56056;48.990;12.146;2023-04-25T12:20:05;1630.53;;;999.90;;
68995;SDS011;56056;48.990;12.146;2023-04-25T12:22:32;1279.05;;;999.90;;
68995;SDS011;56056;48.990;12.146;2023-04-25T12:24:58;1556.35;;;999.90;;
68995;SDS011;56056;48.990;12.146;2023-04-25T12:27:25;1520.47;;;999.90;;
68995;SDS011;56056;48.990;12.146;2023-04-25T12:29:52;1495.13;;;999.90;;
68995;SDS011;56056;48.990;12.146;2023-04-25T12:32:18;1468.25;;;999.90;;
68995;SDS011;56056;48.990;12.146;2023-04-25T12:34:44;1256.72;;;999.90;;
68995;SDS011;56056;48.990;12.146;2023-04-25T12:37:10;1867.93;;;999.90;;
68995;SDS011;56056;48.990;12.146;2023-04-25T12:39:36;1353.60;;;999.90;;
68995;SDS011;56056;48.990;12.146;2023-04-25T12:42:02;1134.53;;;999.90;;
68995;SDS011;56056;48.990;12.146;2023-04-25T12:44:29;1190.15;;;999.90;;
68995;SDS011;56056;48.990;12.146;2023-04-25T12:46:55;1696.90;;;999.90;;
68995;SDS011;56056;48.990;12.146;2023-04-25T12:49:21;1526.47;;;999.90;;
68995;SDS011;56056;48.990;12.146;2023-04-25T12:51:47;1533.68;;;999.90;;
68995;SDS011;56056;48.990;12.146;2023-04-25T12:54:12;1459.00;;;999.90;;
68995;SDS011;56056;48.990;12.146;2023-04-25T12:56:39;1591.47;;;999.90;;
68995;SDS011;56056;48.990;12.146;2023-04-25T12:59:06;1552.03;;;999.90;;
68995;SDS011;56056;48.990;12.146;2023-04-25T13:01:33;1547.53;;;999.90;;
68995;SDS011;56056;48.990;12.146;2023-04-25T13:03:59;1449.30;;;999.90;;
68995;SDS011;56056;48.990;12.146;2023-04-25T13:06:24;1644.10;;;999.90;;
68995;SDS011;56056;48.990;12.146;2023-04-25T13:08:51;1730.97;;;999.90;;
68995;SDS011;56056;48.990;12.146;2023-04-25T13:11:16;1612.53;;;999.90;;
68995;SDS011;56056;48.990;12.146;2023-04-25T13:13:42;1297.78;;;999.90;;
68995;SDS011;56056;48.990;12.146;2023-04-25T13:16:08;1498.70;;;999.90;;
68995;SDS011;56056;48.990;12.146;2023-04-25T13:18:35;1529.30;;;999.90;;
68995;SDS011;56056;48.990;12.146;2023-04-25T13:21:01;1613.80;;;999.90;;
68995;SDS011;56056;48.990;12.146;2023-04-25T13:23:28;1550.85;;;999.90;;
68995;SDS011;56056;48.990;12.146;2023-04-25T13:25:54;1170.50;;;999.90;;
68995;SDS011;56056;48.990;12.146;2023-04-25T13:28:22;1449.40;;;999.90;;
68995;SDS011;56056;48.990;12.146;2023-04-25T13:30:48;1359.78;;;999.90;;
68995;SDS011;56056;48.990;12.146;2023-04-25T13:33:14;1511.20;;;999.90;;
68995;SDS011;56056;48.990;12.146;2023-04-25T13:35:41;1406.82;;;999.90;;